sensor_id;sensor_type;location;lat;lon;timestamp;P1;durP1;ratioP1;P2;durP2;ratioP2
5357;SDS011;2702;51.014;7.170;2023-02-04T00:01:25;13.37;;;3.87;;
5357;SDS011;2702;51.014;7.170;2023-02-04T00:03:51;8.20;;;3.33;;
5357;SDS011;2702;51.014;7.170;2023-02-04T00:06:17;15.60;;;3.87;;
5357;SDS011;2702;51.014;7.170;2023-02-04T00:08:43;10.53;;;3.27;;
5357;SDS011;2702;51.014;7.170;2023-02-04T00:11:09;12.07;;;4.30;;
5357;SDS011;2702;51.014;7.170;2023-02-04T00:13:34;12.20;;;4.30;;
5357;SDS011;2702;51.014;7.170;2023-02-04T00:16:00;13.13;;;4.30;;
5357;SDS011;2702;51.014;7.170;2023-02-04T00:18:27;12.03;;;3.90;;
5357;SDS011;2702;51.014;7.170;2023-02-04T00:20:53;15.90;;;3.97;;
5357;SDS011;2702;51.014;7.170;2023-02-04T00:23:19;11.40;;;4.30;;
5357;SDS011;2702;51.014;7.170;2023-02-04T00:25:45;11.73;;;4.23;;
5357;SDS011;2702;51.014;7.170;2023-02-04T00:28:11;17.30;;;4.67;;
5357;SDS011;2702;51.014;7.170;2023-02-04T00:30:37;12.83;;;4.33;;
5357;SDS011;2702;51.014;7.170;2023-02-04T00:33:02;20.77;;;4.53;;
5357;SDS011;2702;51.014;7.170;2023-02-04T00:35:28;14.00;;;4.53;;
5357;SDS011;2702;51.014;7.170;2023-02-04T00:37:54;11.33;;;3.20;;
5357;SDS011;2702;51.014;7.170;2023-02-04T00:40:20;17.90;;;5.50;;
5357;SDS011;2702;51.014;7.170;2023-02-04T00:42:46;12.93;;;4.60;;
5357;SDS011;2702;51.014;7.170;2023-02-04T00:45:12;11.33;;;4.20;;
5357;SDS011;2702;51.014;7.170;2023-02-04T00:47:38;9.93;;;3.90;;
5357;SDS011;2702;51.014;7.170;2023-02-04T00:50:04;12.73;;;4.33;;
5357;SDS011;2702;51.014;7.170;2023-02-04T00:52:30;14.73;;;4.80;;
5357;SDS011;2702;51.014;7.170;2023-02-04T00:54:56;13.00;;;4.97;;
5357;SDS011;2702;51.014;7.170;2023-02-04T00:57:22;16.50;;;4.37;;
5357;SDS011;2702;51.014;7.170;2023-02-04T00:59:47;13.63;;;4.17;;
5357;SDS011;2702;51.014;7.170;2023-02-04T01:02:13;15.20;;;5.50;;
5357;SDS011;2702;51.014;7.170;2023-02-04T01:04:39;12.23;;;4.10;;
5357;SDS011;2702;51.014;7.170;2023-02-04T01:07:05;12.30;;;4.60;;
5357;SDS011;2702;51.014;7.170;2023-02-04T01:09:31;12.97;;;4.80;;
5357;SDS011;2702;51.014;7.170;2023-02-04T01:11:58;11.23;;;4.60;;
5357;SDS011;2702;51.014;7.170;2023-02-04T01:14:24;13.73;;;4.57;;
5357;SDS011;2702;51.014;7.170;2023-02-04T01:16:49;13.77;;;4.30;;
5357;SDS011;2702;51.014;7.170;2023-02-04T01:19:15;20.57;;;5.07;;
5357;SDS011;2702;51.014;7.170;2023-02-04T01:21:41;13.70;;;4.00;;
5357;SDS011;2702;51.014;7.170;2023-02-04T01:24:07;14.00;;;5.73;;
5357;SDS011;2702;51.014;7.170;2023-02-04T01:26:33;11.90;;;3.87;;
5357;SDS011;2702;51.014;7.170;2023-02-04T01:28:59;10.23;;;4.13;;
5357;SDS011;2702;51.014;7.170;2023-02-04T01:31:24;12.27;;;4.27;;
5357;SDS011;2702;51.014;7.170;2023-02-04T01:33:50;13.20;;;3.60;;
5357;SDS011;2702;51.014;7.170;2023-02-04T01:36:16;10.90;;;3.87;;
5357;SDS011;2702;51.014;7.170;2023-02-04T01:38:46;9.37;;;4.40;;
5357;SDS011;2702;51.014;7.170;2023-02-04T01:41:13;11.00;;;4.40;;
5357;SDS011;2702;51.014;7.170;2023-02-04T01:43:40;14.90;;;4.30;;
5357;SDS011;2702;51.014;7.170;2023-02-04T01:46:06;18.00;;;4.27;;
5357;SDS011;2702;51.014;7.170;2023-02-04T01:48:32;11.30;;;3.87;;
5357;SDS011;2702;51.014;7.170;2023-02-04T01:51:05;12.47;;;5.27;;
5357;SDS011;2702;51.014;7.170;2023-02-04T01:53:35;13.13;;;4.23;;
5357;SDS011;2702;51.014;7.170;2023-02-04T01:56:19;17.97;;;4.50;;
5357;SDS011;2702;51.014;7.170;2023-02-04T01:58:46;11.87;;;4.07;;
5357;SDS011;2702;51.014;7.170;2023-02-04T02:01:14;13.30;;;4.07;;
5357;SDS011;2702;51.014;7.170;2023-02-04T02:03:57;15.70;;;5.90;;
5357;SDS011;2702;51.014;7.170;2023-02-04T02:06:24;13.73;;;4.37;;
5357;SDS011;2702;51.014;7.170;2023-02-04T02:08:50;16.90;;;4.70;;
5357;SDS011;2702;51.014;7.170;2023-02-04T02:11:16;12.57;;;4.10;;
5357;SDS011;2702;51.014;7.170;2023-02-04T02:13:42;14.50;;;4.70;;
5357;SDS011;2702;51.014;7.170;2023-02-04T02:16:08;8.60;;;4.03;;
5357;SDS011;2702;51.014;7.170;2023-02-04T02:18:34;17.83;;;5.17;;
5357;SDS011;2702;51.014;7.170;2023-02-04T02:21:03;11.77;;;4.80;;
5357;SDS011;2702;51.014;7.170;2023-02-04T02:26:13;13.20;;;4.00;;
5357;SDS011;2702;51.014;7.170;2023-02-04T02:28:40;12.97;;;3.93;;
5357;SDS011;2702;51.014;7.170;2023-02-04T02:31:06;17.13;;;4.40;;
5357;SDS011;2702;51.014;7.170;2023-02-04T02:33:33;10.83;;;3.93;;
5357;SDS011;2702;51.014;7.170;2023-02-04T02:35:59;14.33;;;4.60;;
5357;SDS011;2702;51.014;7.170;2023-02-04T02:38:25;19.73;;;4.70;;
5357;SDS011;2702;51.014;7.170;2023-02-04T02:40:51;14.83;;;5.40;;
5357;SDS011;2702;51.014;7.170;2023-02-04T02:43:22;9.30;;;4.00;;
5357;SDS011;2702;51.014;7.170;2023-02-04T02:45:50;15.03;;;4.37;;
5357;SDS011;2702;51.014;7.170;2023-02-04T02:48:17;18.70;;;4.17;;
5357;SDS011;2702;51.014;7.170;2023-02-04T02:50:43;15.63;;;4.60;;
5357;SDS011;2702;51.014;7.170;2023-02-04T02:53:10;10.17;;;3.60;;
5357;SDS011;2702;51.014;7.170;2023-02-04T02:55:38;18.57;;;3.97;;
5357;SDS011;2702;51.014;7.170;2023-02-04T02:58:04;11.73;;;4.27;;
5357;SDS011;2702;51.014;7.170;2023-02-04T03:00:42;16.97;;;4.50;;
5357;SDS011;2702;51.014;7.170;2023-02-04T03:03:12;15.67;;;4.00;;
5357;SDS011;2702;51.014;7.170;2023-02-04T03:05:45;14.37;;;4.67;;
5357;SDS011;2702;51.014;7.170;2023-02-04T03:08:14;16.00;;;5.43;;
5357;SDS011;2702;51.014;7.170;2023-02-04T03:10:41;10.97;;;4.23;;
5357;SDS011;2702;51.014;7.170;2023-02-04T03:13:10;11.63;;;4.40;;
5357;SDS011;2702;51.014;7.170;2023-02-04T03:15:38;11.50;;;4.20;;
5357;SDS011;2702;51.014;7.170;2023-02-04T03:18:05;14.23;;;3.90;;
5357;SDS011;2702;51.014;7.170;2023-02-04T03:20:32;11.87;;;4.10;;
5357;SDS011;2702;51.014;7.170;2023-02-04T03:22:58;16.40;;;3.67;;
5357;SDS011;2702;51.014;7.170;2023-02-04T03:25:24;19.30;;;4.53;;
5357;SDS011;2702;51.014;7.170;2023-02-04T03:27:52;13.93;;;4.00;;
5357;SDS011;2702;51.014;7.170;2023-02-04T03:30:20;10.23;;;3.90;;
5357;SDS011;2702;51.014;7.170;2023-02-04T03:32:46;14.67;;;4.03;;
5357;SDS011;2702;51.014;7.170;2023-02-04T03:35:12;14.70;;;4.27;;
5357;SDS011;2702;51.014;7.170;2023-02-04T03:37:38;12.27;;;3.60;;
5357;SDS011;2702;51.014;7.170;2023-02-04T03:40:05;12.30;;;4.53;;
5357;SDS011;2702;51.014;7.170;2023-02-04T03:42:31;10.87;;;4.03;;
5357;SDS011;2702;51.014;7.170;2023-02-04T03:44:57;12.60;;;3.80;;
5357;SDS011;2702;51.014;7.170;2023-02-04T03:47:23;17.07;;;4.20;;
5357;SDS011;2702;51.014;7.170;2023-02-04T03:49:49;10.63;;;3.83;;
5357;SDS011;2702;51.014;7.170;2023-02-04T03:52:14;15.33;;;5.43;;
5357;SDS011;2702;51.014;7.170;2023-02-04T03:54:40;16.37;;;4.00;;
5357;SDS011;2702;51.014;7.170;2023-02-04T03:57:06;20.30;;;4.80;;
5357;SDS011;2702;51.014;7.170;2023-02-04T03:59:32;14.73;;;4.90;;
5357;SDS011;2702;51.014;7.170;2023-02-04T04:01:58;14.73;;;3.57;;
5357;SDS011;2702;51.014;7.170;2023-02-04T04:04:23;10.70;;;3.90;;
5357;SDS011;2702;51.014;7.170;2023-02-04T04:06:49;18.50;;;4.70;;
5357;SDS011;2702;51.014;7.170;2023-02-04T04:09:15;11.20;;;3.57;;
5357;SDS011;2702;51.014;7.170;2023-02-04T04:11:41;16.90;;;5.30;;
5357;SDS011;2702;51.014;7.170;2023-02-04T04:14:07;16.77;;;4.13;;
5357;SDS011;2702;51.014;7.170;2023-02-04T04:16:33;19.17;;;4.50;;
5357;SDS011;2702;51.014;7.170;2023-02-04T04:18:59;18.23;;;4.90;;
5357;SDS011;2702;51.014;7.170;2023-02-04T04:21:24;15.17;;;4.10;;
5357;SDS011;2702;51.014;7.170;2023-02-04T04:23:50;10.70;;;3.53;;
5357;SDS011;2702;51.014;7.170;2023-02-04T04:26:16;14.63;;;3.67;;
5357;SDS011;2702;51.014;7.170;2023-02-04T04:28:42;14.70;;;4.80;;
5357;SDS011;2702;51.014;7.170;2023-02-04T04:31:08;10.77;;;4.30;;
5357;SDS011;2702;51.014;7.170;2023-02-04T04:33:33;11.63;;;3.83;;
5357;SDS011;2702;51.014;7.170;2023-02-04T04:35:59;15.67;;;4.80;;
5357;SDS011;2702;51.014;7.170;2023-02-04T04:38:25;14.83;;;4.50;;
5357;SDS011;2702;51.014;7.170;2023-02-04T04:40:51;10.90;;;3.70;;
5357;SDS011;2702;51.014;7.170;2023-02-04T04:43:17;8.30;;;4.27;;
5357;SDS011;2702;51.014;7.170;2023-02-04T04:45:43;15.00;;;4.07;;
5357;SDS011;2702;51.014;7.170;2023-02-04T04:48:09;14.33;;;4.30;;
5357;SDS011;2702;51.014;7.170;2023-02-04T04:50:35;11.37;;;3.40;;
5357;SDS011;2702;51.014;7.170;2023-02-04T04:53:00;15.70;;;3.63;;
5357;SDS011;2702;51.014;7.170;2023-02-04T04:55:26;9.27;;;3.87;;
5357;SDS011;2702;51.014;7.170;2023-02-04T04:57:52;13.50;;;3.83;;
5357;SDS011;2702;51.014;7.170;2023-02-04T05:00:19;15.40;;;3.53;;
5357;SDS011;2702;51.014;7.170;2023-02-04T05:02:45;15.60;;;3.90;;
5357;SDS011;2702;51.014;7.170;2023-02-04T05:05:11;12.80;;;3.57;;
5357;SDS011;2702;51.014;7.170;2023-02-04T05:07:38;12.83;;;4.20;;
5357;SDS011;2702;51.014;7.170;2023-02-04T05:10:04;17.70;;;4.43;;
5357;SDS011;2702;51.014;7.170;2023-02-04T05:12:31;20.83;;;4.40;;
5357;SDS011;2702;51.014;7.170;2023-02-04T05:14:56;11.00;;;3.50;;
5357;SDS011;2702;51.014;7.170;2023-02-04T05:17:22;15.87;;;4.07;;
5357;SDS011;2702;51.014;7.170;2023-02-04T05:19:48;11.73;;;3.60;;
5357;SDS011;2702;51.014;7.170;2023-02-04T05:22:14;17.00;;;4.30;;
5357;SDS011;2702;51.014;7.170;2023-02-04T05:24:40;13.50;;;4.07;;
5357;SDS011;2702;51.014;7.170;2023-02-04T05:27:05;14.53;;;5.27;;
5357;SDS011;2702;51.014;7.170;2023-02-04T05:29:31;10.57;;;3.63;;
5357;SDS011;2702;51.014;7.170;2023-02-04T05:31:57;14.33;;;4.60;;
5357;SDS011;2702;51.014;7.170;2023-02-04T05:34:23;10.97;;;3.60;;
5357;SDS011;2702;51.014;7.170;2023-02-04T05:36:49;10.63;;;3.27;;
5357;SDS011;2702;51.014;7.170;2023-02-04T05:39:14;16.13;;;4.50;;
5357;SDS011;2702;51.014;7.170;2023-02-04T05:41:40;11.23;;;4.30;;
5357;SDS011;2702;51.014;7.170;2023-02-04T05:44:06;14.30;;;3.93;;
5357;SDS011;2702;51.014;7.170;2023-02-04T05:46:32;13.47;;;4.23;;
5357;SDS011;2702;51.014;7.170;2023-02-04T05:48:58;14.27;;;5.70;;
5357;SDS011;2702;51.014;7.170;2023-02-04T05:51:24;9.80;;;3.53;;
5357;SDS011;2702;51.014;7.170;2023-02-04T05:53:49;13.83;;;4.27;;
5357;SDS011;2702;51.014;7.170;2023-02-04T05:56:15;9.93;;;3.77;;
5357;SDS011;2702;51.014;7.170;2023-02-04T05:58:41;15.10;;;3.77;;
5357;SDS011;2702;51.014;7.170;2023-02-04T06:01:07;12.80;;;4.10;;
5357;SDS011;2702;51.014;7.170;2023-02-04T06:03:33;15.33;;;4.40;;
5357;SDS011;2702;51.014;7.170;2023-02-04T06:05:58;18.77;;;5.77;;
5357;SDS011;2702;51.014;7.170;2023-02-04T06:08:24;11.37;;;4.60;;
5357;SDS011;2702;51.014;7.170;2023-02-04T06:10:50;13.10;;;4.40;;
5357;SDS011;2702;51.014;7.170;2023-02-04T06:13:16;14.17;;;4.60;;
5357;SDS011;2702;51.014;7.170;2023-02-04T06:15:42;10.80;;;3.87;;
5357;SDS011;2702;51.014;7.170;2023-02-04T06:18:08;13.37;;;4.97;;
5357;SDS011;2702;51.014;7.170;2023-02-04T06:20:34;13.90;;;4.70;;
5357;SDS011;2702;51.014;7.170;2023-02-04T06:22:59;10.60;;;6.07;;
5357;SDS011;2702;51.014;7.170;2023-02-04T06:25:25;17.93;;;5.63;;
5357;SDS011;2702;51.014;7.170;2023-02-04T06:27:51;12.07;;;5.10;;
5357;SDS011;2702;51.014;7.170;2023-02-04T06:30:17;12.63;;;4.80;;
5357;SDS011;2702;51.014;7.170;2023-02-04T06:32:43;14.57;;;5.70;;
5357;SDS011;2702;51.014;7.170;2023-02-04T06:35:09;16.37;;;6.07;;
5357;SDS011;2702;51.014;7.170;2023-02-04T06:37:37;24.77;;;7.00;;
5357;SDS011;2702;51.014;7.170;2023-02-04T06:40:03;15.97;;;6.73;;
5357;SDS011;2702;51.014;7.170;2023-02-04T06:42:30;19.20;;;6.73;;
5357;SDS011;2702;51.014;7.170;2023-02-04T06:44:56;19.93;;;7.20;;
5357;SDS011;2702;51.014;7.170;2023-02-04T06:47:22;14.00;;;6.60;;
5357;SDS011;2702;51.014;7.170;2023-02-04T06:49:48;16.50;;;8.07;;
5357;SDS011;2702;51.014;7.170;2023-02-04T06:52:14;15.00;;;6.73;;
5357;SDS011;2702;51.014;7.170;2023-02-04T06:54:40;17.70;;;7.40;;
5357;SDS011;2702;51.014;7.170;2023-02-04T06:57:06;19.17;;;8.00;;
5357;SDS011;2702;51.014;7.170;2023-02-04T06:59:32;14.70;;;7.83;;
5357;SDS011;2702;51.014;7.170;2023-02-04T07:01:59;20.30;;;9.57;;
5357;SDS011;2702;51.014;7.170;2023-02-04T07:04:25;29.63;;;11.17;;
5357;SDS011;2702;51.014;7.170;2023-02-04T07:06:50;25.20;;;10.77;;
5357;SDS011;2702;51.014;7.170;2023-02-04T07:09:16;21.67;;;10.40;;
5357;SDS011;2702;51.014;7.170;2023-02-04T07:11:42;18.60;;;9.43;;
5357;SDS011;2702;51.014;7.170;2023-02-04T07:14:08;21.73;;;11.73;;
5357;SDS011;2702;51.014;7.170;2023-02-04T07:16:34;20.17;;;10.57;;
5357;SDS011;2702;51.014;7.170;2023-02-04T07:19:01;36.63;;;11.07;;
5357;SDS011;2702;51.014;7.170;2023-02-04T07:21:27;18.60;;;10.17;;
5357;SDS011;2702;51.014;7.170;2023-02-04T07:23:53;22.83;;;10.60;;
5357;SDS011;2702;51.014;7.170;2023-02-04T07:26:19;21.63;;;11.03;;
5357;SDS011;2702;51.014;7.170;2023-02-04T07:28:45;20.40;;;10.50;;
5357;SDS011;2702;51.014;7.170;2023-02-04T07:31:11;19.90;;;10.97;;
5357;SDS011;2702;51.014;7.170;2023-02-04T07:33:37;18.63;;;10.40;;
5357;SDS011;2702;51.014;7.170;2023-02-04T07:36:03;24.23;;;11.30;;
5357;SDS011;2702;51.014;7.170;2023-02-04T07:38:29;20.20;;;10.30;;
5357;SDS011;2702;51.014;7.170;2023-02-04T07:40:55;19.50;;;10.10;;
5357;SDS011;2702;51.014;7.170;2023-02-04T07:43:21;26.90;;;11.60;;
5357;SDS011;2702;51.014;7.170;2023-02-04T07:45:46;21.30;;;10.23;;
5357;SDS011;2702;51.014;7.170;2023-02-04T07:48:12;19.87;;;10.43;;
5357;SDS011;2702;51.014;7.170;2023-02-04T07:50:38;20.50;;;10.77;;
5357;SDS011;2702;51.014;7.170;2023-02-04T07:53:04;20.80;;;10.23;;
5357;SDS011;2702;51.014;7.170;2023-02-04T07:55:30;24.30;;;11.13;;
5357;SDS011;2702;51.014;7.170;2023-02-04T07:57:56;20.83;;;11.30;;
5357;SDS011;2702;51.014;7.170;2023-02-04T08:00:22;22.43;;;10.93;;
5357;SDS011;2702;51.014;7.170;2023-02-04T08:02:48;30.33;;;10.47;;
5357;SDS011;2702;51.014;7.170;2023-02-04T08:05:14;18.20;;;10.27;;
5357;SDS011;2702;51.014;7.170;2023-02-04T08:07:40;20.27;;;9.50;;
5357;SDS011;2702;51.014;7.170;2023-02-04T08:10:07;24.70;;;9.30;;
5357;SDS011;2702;51.014;7.170;2023-02-04T08:12:34;23.60;;;10.47;;
5357;SDS011;2702;51.014;7.170;2023-02-04T08:15:00;19.73;;;10.50;;
5357;SDS011;2702;51.014;7.170;2023-02-04T08:17:26;17.07;;;9.10;;
5357;SDS011;2702;51.014;7.170;2023-02-04T08:19:52;17.63;;;8.37;;
5357;SDS011;2702;51.014;7.170;2023-02-04T08:22:18;16.13;;;9.10;;
5357;SDS011;2702;51.014;7.170;2023-02-04T08:24:44;18.60;;;10.07;;
5357;SDS011;2702;51.014;7.170;2023-02-04T08:27:10;21.70;;;10.07;;
5357;SDS011;2702;51.014;7.170;2023-02-04T08:29:36;19.17;;;9.17;;
5357;SDS011;2702;51.014;7.170;2023-02-04T08:32:02;20.33;;;8.80;;
5357;SDS011;2702;51.014;7.170;2023-02-04T08:34:28;27.67;;;10.23;;
5357;SDS011;2702;51.014;7.170;2023-02-04T08:36:55;20.93;;;9.23;;
5357;SDS011;2702;51.014;7.170;2023-02-04T08:39:21;18.90;;;9.20;;
5357;SDS011;2702;51.014;7.170;2023-02-04T08:41:46;22.47;;;9.07;;
5357;SDS011;2702;51.014;7.170;2023-02-04T08:44:13;16.17;;;8.30;;
5357;SDS011;2702;51.014;7.170;2023-02-04T08:46:40;21.53;;;7.97;;
5357;SDS011;2702;51.014;7.170;2023-02-04T08:49:05;18.70;;;8.80;;
5357;SDS011;2702;51.014;7.170;2023-02-04T08:51:31;22.43;;;8.90;;
5357;SDS011;2702;51.014;7.170;2023-02-04T08:53:57;19.53;;;8.07;;
5357;SDS011;2702;51.014;7.170;2023-02-04T08:56:23;24.37;;;9.33;;
5357;SDS011;2702;51.014;7.170;2023-02-04T08:58:49;24.47;;;8.57;;
5357;SDS011;2702;51.014;7.170;2023-02-04T09:01:17;18.13;;;8.73;;
5357;SDS011;2702;51.014;7.170;2023-02-04T09:03:43;20.93;;;9.00;;
5357;SDS011;2702;51.014;7.170;2023-02-04T09:06:09;15.13;;;8.30;;
5357;SDS011;2702;51.014;7.170;2023-02-04T09:08:35;21.53;;;8.00;;
5357;SDS011;2702;51.014;7.170;2023-02-04T09:11:02;19.70;;;8.80;;
5357;SDS011;2702;51.014;7.170;2023-02-04T09:13:28;22.67;;;9.10;;
5357;SDS011;2702;51.014;7.170;2023-02-04T09:15:55;20.10;;;9.60;;
5357;SDS011;2702;51.014;7.170;2023-02-04T09:18:21;23.30;;;10.37;;
5357;SDS011;2702;51.014;7.170;2023-02-04T09:20:49;24.27;;;10.10;;
5357;SDS011;2702;51.014;7.170;2023-02-04T09:23:16;23.30;;;12.00;;
5357;SDS011;2702;51.014;7.170;2023-02-04T09:25:43;25.37;;;13.30;;
5357;SDS011;2702;51.014;7.170;2023-02-04T09:28:10;24.10;;;11.07;;
5357;SDS011;2702;51.014;7.170;2023-02-04T09:30:38;22.23;;;10.63;;
5357;SDS011;2702;51.014;7.170;2023-02-04T09:33:05;27.50;;;13.63;;
5357;SDS011;2702;51.014;7.170;2023-02-04T09:35:32;30.77;;;13.93;;
5357;SDS011;2702;51.014;7.170;2023-02-04T09:37:58;29.87;;;12.57;;
5357;SDS011;2702;51.014;7.170;2023-02-04T09:40:25;31.50;;;16.00;;
5357;SDS011;2702;51.014;7.170;2023-02-04T09:42:52;27.67;;;15.00;;
5357;SDS011;2702;51.014;7.170;2023-02-04T09:45:23;21.50;;;13.60;;
5357;SDS011;2702;51.014;7.170;2023-02-04T09:47:55;24.73;;;14.70;;
5357;SDS011;2702;51.014;7.170;2023-02-04T09:50:24;23.07;;;13.93;;
5357;SDS011;2702;51.014;7.170;2023-02-04T09:52:53;27.10;;;15.13;;
5357;SDS011;2702;51.014;7.170;2023-02-04T09:55:24;26.17;;;13.50;;
5357;SDS011;2702;51.014;7.170;2023-02-04T09:57:59;24.13;;;13.30;;
5357;SDS011;2702;51.014;7.170;2023-02-04T10:00:26;24.90;;;13.37;;
5357;SDS011;2702;51.014;7.170;2023-02-04T10:02:59;26.23;;;14.17;;
5357;SDS011;2702;51.014;7.170;2023-02-04T10:05:30;24.77;;;13.00;;
5357;SDS011;2702;51.014;7.170;2023-02-04T10:08:00;24.90;;;12.90;;
5357;SDS011;2702;51.014;7.170;2023-02-04T10:10:29;22.23;;;12.40;;
5357;SDS011;2702;51.014;7.170;2023-02-04T10:12:57;30.60;;;14.80;;
5357;SDS011;2702;51.014;7.170;2023-02-04T10:15:26;23.17;;;11.73;;
5357;SDS011;2702;51.014;7.170;2023-02-04T10:17:55;22.63;;;12.80;;
5357;SDS011;2702;51.014;7.170;2023-02-04T10:20:25;23.60;;;12.90;;
5357;SDS011;2702;51.014;7.170;2023-02-04T10:22:52;22.90;;;11.33;;
5357;SDS011;2702;51.014;7.170;2023-02-04T10:25:22;25.90;;;13.17;;
5357;SDS011;2702;51.014;7.170;2023-02-04T10:27:53;23.80;;;12.53;;
5357;SDS011;2702;51.014;7.170;2023-02-04T10:30:36;20.53;;;12.20;;
5357;SDS011;2702;51.014;7.170;2023-02-04T10:33:14;25.10;;;12.03;;
5357;SDS011;2702;51.014;7.170;2023-02-04T10:35:49;31.43;;;13.20;;
5357;SDS011;2702;51.014;7.170;2023-02-04T10:38:16;29.90;;;12.93;;
5357;SDS011;2702;51.014;7.170;2023-02-04T10:40:43;23.13;;;12.47;;
5357;SDS011;2702;51.014;7.170;2023-02-04T10:43:15;29.10;;;14.27;;
5357;SDS011;2702;51.014;7.170;2023-02-04T10:45:54;26.53;;;13.17;;
5357;SDS011;2702;51.014;7.170;2023-02-04T10:48:25;23.27;;;12.63;;
5357;SDS011;2702;51.014;7.170;2023-02-04T10:50:52;21.73;;;11.63;;
5357;SDS011;2702;51.014;7.170;2023-02-04T10:53:19;18.00;;;10.77;;
5357;SDS011;2702;51.014;7.170;2023-02-04T10:56:08;21.23;;;10.97;;
5357;SDS011;2702;51.014;7.170;2023-02-04T10:58:46;20.40;;;9.77;;
5357;SDS011;2702;51.014;7.170;2023-02-04T11:01:13;26.97;;;13.37;;
5357;SDS011;2702;51.014;7.170;2023-02-04T11:03:41;19.20;;;11.37;;
5357;SDS011;2702;51.014;7.170;2023-02-04T11:06:11;21.93;;;10.73;;
5357;SDS011;2702;51.014;7.170;2023-02-04T11:08:41;18.80;;;12.13;;
5357;SDS011;2702;51.014;7.170;2023-02-04T11:11:11;22.63;;;11.13;;
5357;SDS011;2702;51.014;7.170;2023-02-04T11:21:21;24.23;;;12.27;;
5357;SDS011;2702;51.014;7.170;2023-02-04T11:26:44;17.60;;;9.90;;
5357;SDS011;2702;51.014;7.170;2023-02-04T11:39:32;25.57;;;12.47;;
5357;SDS011;2702;51.014;7.170;2023-02-04T11:42:09;26.77;;;11.40;;
5357;SDS011;2702;51.014;7.170;2023-02-04T11:44:41;19.10;;;11.03;;
5357;SDS011;2702;51.014;7.170;2023-02-04T11:47:14;25.50;;;13.00;;
5357;SDS011;2702;51.014;7.170;2023-02-04T11:49:39;17.13;;;10.90;;
5357;SDS011;2702;51.014;7.170;2023-02-04T11:52:06;15.57;;;9.27;;
5357;SDS011;2702;51.014;7.170;2023-02-04T11:54:36;18.40;;;10.43;;
5357;SDS011;2702;51.014;7.170;2023-02-04T11:57:02;28.83;;;12.70;;
5357;SDS011;2702;51.014;7.170;2023-02-04T11:59:28;24.77;;;12.00;;
5357;SDS011;2702;51.014;7.170;2023-02-04T12:02:04;21.67;;;10.90;;
5357;SDS011;2702;51.014;7.170;2023-02-04T12:04:38;21.00;;;10.60;;
5357;SDS011;2702;51.014;7.170;2023-02-04T12:07:20;23.23;;;11.67;;
5357;SDS011;2702;51.014;7.170;2023-02-04T12:09:51;21.47;;;12.07;;
5357;SDS011;2702;51.014;7.170;2023-02-04T12:12:24;19.40;;;10.93;;
5357;SDS011;2702;51.014;7.170;2023-02-04T12:14:56;20.87;;;9.27;;
5357;SDS011;2702;51.014;7.170;2023-02-04T12:17:26;16.27;;;10.73;;
5357;SDS011;2702;51.014;7.170;2023-02-04T12:19:52;25.67;;;11.00;;
5357;SDS011;2702;51.014;7.170;2023-02-04T12:22:17;20.07;;;10.30;;
5357;SDS011;2702;51.014;7.170;2023-02-04T12:24:43;23.70;;;10.73;;
5357;SDS011;2702;51.014;7.170;2023-02-04T12:27:09;16.43;;;9.43;;
5357;SDS011;2702;51.014;7.170;2023-02-04T12:29:35;19.03;;;10.33;;
5357;SDS011;2702;51.014;7.170;2023-02-04T12:32:01;15.10;;;9.57;;
5357;SDS011;2702;51.014;7.170;2023-02-04T12:34:27;24.13;;;12.20;;
5357;SDS011;2702;51.014;7.170;2023-02-04T12:36:53;24.17;;;10.63;;
5357;SDS011;2702;51.014;7.170;2023-02-04T12:39:18;16.40;;;10.20;;
5357;SDS011;2702;51.014;7.170;2023-02-04T12:41:44;17.60;;;10.60;;
5357;SDS011;2702;51.014;7.170;2023-02-04T12:44:10;18.60;;;10.80;;
5357;SDS011;2702;51.014;7.170;2023-02-04T12:46:36;21.63;;;11.63;;
5357;SDS011;2702;51.014;7.170;2023-02-04T12:49:02;19.73;;;10.03;;
5357;SDS011;2702;51.014;7.170;2023-02-04T12:51:27;20.50;;;10.00;;
5357;SDS011;2702;51.014;7.170;2023-02-04T12:53:53;17.93;;;10.73;;
5357;SDS011;2702;51.014;7.170;2023-02-04T12:56:19;20.47;;;11.10;;
5357;SDS011;2702;51.014;7.170;2023-02-04T12:58:48;22.30;;;11.87;;
5357;SDS011;2702;51.014;7.170;2023-02-04T13:01:14;19.03;;;11.93;;
5357;SDS011;2702;51.014;7.170;2023-02-04T13:03:39;20.53;;;10.90;;
5357;SDS011;2702;51.014;7.170;2023-02-04T13:06:05;20.80;;;10.13;;
5357;SDS011;2702;51.014;7.170;2023-02-04T13:08:31;17.80;;;11.03;;
5357;SDS011;2702;51.014;7.170;2023-02-04T13:10:57;21.53;;;11.37;;
5357;SDS011;2702;51.014;7.170;2023-02-04T13:13:23;16.13;;;10.63;;
5357;SDS011;2702;51.014;7.170;2023-02-04T13:15:49;23.50;;;11.83;;
5357;SDS011;2702;51.014;7.170;2023-02-04T13:18:15;22.03;;;12.87;;
5357;SDS011;2702;51.014;7.170;2023-02-04T13:20:42;27.03;;;12.77;;
5357;SDS011;2702;51.014;7.170;2023-02-04T13:23:10;21.63;;;12.80;;
5357;SDS011;2702;51.014;7.170;2023-02-04T13:25:35;22.87;;;12.73;;
5357;SDS011;2702;51.014;7.170;2023-02-04T13:28:01;26.37;;;13.80;;
5357;SDS011;2702;51.014;7.170;2023-02-04T13:30:27;23.57;;;13.63;;
5357;SDS011;2702;51.014;7.170;2023-02-04T13:32:53;23.90;;;13.03;;
5357;SDS011;2702;51.014;7.170;2023-02-04T13:35:19;20.87;;;12.17;;
5357;SDS011;2702;51.014;7.170;2023-02-04T13:37:45;25.50;;;11.63;;
5357;SDS011;2702;51.014;7.170;2023-02-04T13:40:11;17.63;;;11.70;;
5357;SDS011;2702;51.014;7.170;2023-02-04T13:42:37;21.67;;;12.23;;
5357;SDS011;2702;51.014;7.170;2023-02-04T13:45:03;19.43;;;11.33;;
5357;SDS011;2702;51.014;7.170;2023-02-04T13:47:31;20.13;;;12.00;;
5357;SDS011;2702;51.014;7.170;2023-02-04T13:49:57;21.23;;;12.00;;
5357;SDS011;2702;51.014;7.170;2023-02-04T13:52:26;22.50;;;12.23;;
5357;SDS011;2702;51.014;7.170;2023-02-04T13:54:53;17.03;;;11.10;;
5357;SDS011;2702;51.014;7.170;2023-02-04T13:57:19;19.97;;;11.03;;
5357;SDS011;2702;51.014;7.170;2023-02-04T13:59:45;20.83;;;11.47;;
5357;SDS011;2702;51.014;7.170;2023-02-04T14:02:11;26.20;;;12.37;;
5357;SDS011;2702;51.014;7.170;2023-02-04T14:04:36;29.90;;;12.30;;
5357;SDS011;2702;51.014;7.170;2023-02-04T14:07:02;19.97;;;11.83;;
5357;SDS011;2702;51.014;7.170;2023-02-04T14:09:28;22.73;;;12.17;;
5357;SDS011;2702;51.014;7.170;2023-02-04T14:11:54;22.47;;;12.20;;
5357;SDS011;2702;51.014;7.170;2023-02-04T14:14:20;16.90;;;10.40;;
5357;SDS011;2702;51.014;7.170;2023-02-04T14:16:46;21.30;;;10.80;;
5357;SDS011;2702;51.014;7.170;2023-02-04T14:19:11;16.23;;;9.90;;
5357;SDS011;2702;51.014;7.170;2023-02-04T14:21:39;14.90;;;9.40;;
5357;SDS011;2702;51.014;7.170;2023-02-04T14:24:05;16.90;;;8.47;;
5357;SDS011;2702;51.014;7.170;2023-02-04T14:26:31;14.70;;;8.30;;
5357;SDS011;2702;51.014;7.170;2023-02-04T14:28:56;17.67;;;9.13;;
5357;SDS011;2702;51.014;7.170;2023-02-04T14:31:22;15.00;;;8.00;;
5357;SDS011;2702;51.014;7.170;2023-02-04T14:33:48;21.00;;;9.23;;
5357;SDS011;2702;51.014;7.170;2023-02-04T14:36:14;13.17;;;8.07;;
5357;SDS011;2702;51.014;7.170;2023-02-04T14:38:40;14.53;;;8.30;;
5357;SDS011;2702;51.014;7.170;2023-02-04T14:41:06;13.70;;;7.57;;
5357;SDS011;2702;51.014;7.170;2023-02-04T14:43:32;18.53;;;9.37;;
5357;SDS011;2702;51.014;7.170;2023-02-04T14:46:02;16.53;;;9.63;;
5357;SDS011;2702;51.014;7.170;2023-02-04T14:48:29;19.00;;;10.80;;
5357;SDS011;2702;51.014;7.170;2023-02-04T14:50:55;18.50;;;10.13;;
5357;SDS011;2702;51.014;7.170;2023-02-04T14:53:20;18.80;;;9.53;;
5357;SDS011;2702;51.014;7.170;2023-02-04T14:55:46;14.57;;;8.10;;
5357;SDS011;2702;51.014;7.170;2023-02-04T14:58:12;15.67;;;7.80;;
5357;SDS011;2702;51.014;7.170;2023-02-04T15:00:38;19.50;;;8.70;;
5357;SDS011;2702;51.014;7.170;2023-02-04T15:03:04;12.03;;;8.40;;
5357;SDS011;2702;51.014;7.170;2023-02-04T15:05:30;12.40;;;7.73;;
5357;SDS011;2702;51.014;7.170;2023-02-04T15:07:55;14.20;;;8.30;;
5357;SDS011;2702;51.014;7.170;2023-02-04T15:10:21;15.67;;;8.47;;
5357;SDS011;2702;51.014;7.170;2023-02-04T15:12:49;13.63;;;7.67;;
5357;SDS011;2702;51.014;7.170;2023-02-04T15:15:15;13.80;;;8.80;;
5357;SDS011;2702;51.014;7.170;2023-02-04T15:17:41;16.07;;;9.10;;